createdAt,value
2022-11-13T00:01:17.580Z,22.87
2022-11-13T00:03:21.980Z,22.89
2022-11-13T00:05:26.367Z,22.88
2022-11-13T00:07:30.752Z,22.89
2022-11-13T00:09:35.282Z,22.89
2022-11-13T00:11:39.634Z,22.88
2022-11-13T00:13:44.028Z,22.88
2022-11-13T00:15:48.431Z,22.86
2022-11-13T00:17:52.817Z,22.83
2022-11-13T00:19:57.206Z,22.83
2022-11-13T00:22:01.597Z,22.82
2022-11-13T00:24:06.011Z,22.8
2022-11-13T00:26:10.401Z,22.8
2022-11-13T00:28:14.762Z,22.8
2022-11-13T00:30:19.724Z,22.77
2022-11-13T00:32:24.215Z,22.78
2022-11-13T00:37:03.050Z,22.75
2022-11-13T00:39:07.440Z,22.73
2022-11-13T00:41:11.796Z,22.73
2022-11-13T00:43:16.183Z,22.71
2022-11-13T00:45:20.587Z,22.7
2022-11-13T00:47:24.942Z,22.68
2022-11-13T00:49:29.326Z,22.67
2022-11-13T00:51:33.722Z,22.66
2022-11-13T00:53:38.223Z,22.64
2022-11-13T00:55:42.583Z,22.62
2022-11-13T00:57:46.956Z,22.62
2022-11-13T00:59:51.480Z,22.6
2022-11-13T01:01:55.892Z,22.6
2022-11-13T01:04:00.422Z,22.6
2022-11-13T01:06:04.791Z,22.6
2022-11-13T01:08:09.140Z,22.6
2022-11-13T01:10:13.549Z,22.61
2022-11-13T01:12:18.141Z,22.62
2022-11-13T01:14:22.500Z,22.62
2022-11-13T01:16:26.912Z,22.61
2022-11-13T01:18:31.273Z,22.61
2022-11-13T01:20:35.610Z,22.6
2022-11-13T01:22:40.026Z,22.58
2022-11-13T01:24:44.420Z,22.56
2022-11-13T01:26:48.794Z,22.55
2022-11-13T01:28:53.298Z,22.55
2022-11-13T01:30:57.776Z,22.54
2022-11-13T01:33:02.194Z,22.53
2022-11-13T01:35:06.551Z,22.52
2022-11-13T01:37:10.965Z,22.54
2022-11-13T01:39:15.344Z,22.53
2022-11-13T01:41:23.293Z,22.52
2022-11-13T01:43:28.019Z,22.49
2022-11-13T01:45:32.382Z,22.47
2022-11-13T01:47:36.737Z,22.47
2022-11-13T01:49:41.124Z,22.46
2022-11-13T01:51:45.509Z,22.46
2022-11-13T01:53:49.855Z,22.46
2022-11-13T01:55:54.215Z,22.46
2022-11-13T01:57:58.570Z,22.45
2022-11-13T02:00:02.957Z,22.43
2022-11-13T02:02:07.363Z,22.43
2022-11-13T02:04:11.922Z,22.42
2022-11-13T02:06:16.326Z,22.4
2022-11-13T02:08:20.785Z,22.39
2022-11-13T02:10:25.178Z,22.38
2022-11-13T02:12:29.545Z,22.38
2022-11-13T02:14:33.919Z,22.37
2022-11-13T02:16:38.325Z,22.37
2022-11-13T02:18:42.686Z,22.35
2022-11-13T02:20:47.080Z,22.36
2022-11-13T02:22:51.497Z,22.34
2022-11-13T02:24:55.887Z,22.33
2022-11-13T02:27:00.246Z,22.33
2022-11-13T02:29:04.658Z,22.32
2022-11-13T02:31:09.032Z,22.3
2022-11-13T02:33:13.459Z,22.28
2022-11-13T02:35:17.800Z,22.28
2022-11-13T02:37:22.147Z,22.26
2022-11-13T02:39:26.518Z,22.26
2022-11-13T02:41:30.916Z,22.24
2022-11-13T02:43:35.277Z,22.23
2022-11-13T02:45:39.618Z,22.22
2022-11-13T02:47:43.996Z,22.21
2022-11-13T02:49:48.365Z,22.2
2022-11-13T02:51:52.700Z,22.19
2022-11-13T02:53:57.078Z,22.18
2022-11-13T02:56:01.435Z,22.17
2022-11-13T02:58:05.796Z,22.15
2022-11-13T03:00:13.699Z,22.15
2022-11-13T03:02:18.534Z,22.13
2022-11-13T03:04:22.877Z,22.12
2022-11-13T03:06:27.216Z,22.11
2022-11-13T03:08:32.558Z,22.11
2022-11-13T03:10:40.508Z,22.09
2022-11-13T03:12:44.973Z,22.08
2022-11-13T03:14:49.327Z,22.07
2022-11-13T03:16:53.723Z,22.06
2022-11-13T03:18:58.100Z,22.05
2022-11-13T03:21:02.432Z,22.02
2022-11-13T03:23:06.825Z,22
2022-11-13T03:25:11.360Z,21.96
2022-11-13T03:27:15.750Z,21.96
2022-11-13T03:29:20.181Z,21.95
2022-11-13T03:31:24.782Z,21.94
2022-11-13T03:33:29.167Z,21.93
2022-11-13T03:35:38.112Z,21.91
2022-11-13T03:37:50.443Z,21.9
2022-11-13T03:39:54.805Z,21.92
2022-11-13T03:41:59.191Z,21.91
2022-11-13T03:44:03.613Z,21.92
2022-11-13T03:46:07.992Z,21.92
2022-11-13T03:48:12.386Z,21.91
2022-11-13T03:50:16.755Z,21.89
2022-11-13T03:52:21.234Z,21.9
2022-11-13T03:54:25.619Z,21.88
2022-11-13T03:56:30.033Z,21.87
2022-11-13T03:58:37.349Z,21.86
2022-11-13T04:00:49.571Z,21.86
2022-11-13T04:02:53.895Z,21.85
2022-11-13T04:04:58.277Z,21.86
2022-11-13T04:07:02.737Z,21.83
2022-11-13T04:09:07.309Z,21.83
2022-11-13T04:11:11.635Z,21.81
2022-11-13T04:13:15.992Z,21.81
2022-11-13T04:15:20.345Z,21.82
2022-11-13T04:17:24.699Z,21.81
2022-11-13T04:19:29.054Z,21.81
2022-11-13T04:21:33.390Z,21.8
2022-11-13T04:23:37.796Z,21.79
2022-11-13T04:25:42.167Z,21.78
2022-11-13T04:27:46.519Z,21.77
2022-11-13T04:29:50.905Z,21.75
2022-11-13T04:31:55.259Z,21.74
2022-11-13T04:33:59.655Z,21.74
2022-11-13T04:36:04.014Z,21.72
2022-11-13T04:38:08.354Z,21.72
2022-11-13T04:40:12.762Z,21.7
2022-11-13T04:42:17.129Z,21.69
2022-11-13T04:44:21.547Z,21.69
2022-11-13T04:46:25.904Z,21.69
2022-11-13T04:48:30.504Z,21.69
2022-11-13T04:50:35.183Z,21.69
2022-11-13T04:52:39.569Z,21.7
2022-11-13T04:54:43.925Z,21.69
2022-11-13T04:56:48.269Z,21.69
2022-11-13T04:58:52.631Z,21.68
2022-11-13T05:00:56.988Z,21.68
2022-11-13T05:03:01.352Z,21.69
2022-11-13T05:05:05.745Z,21.68
2022-11-13T05:07:10.209Z,21.68
2022-11-13T05:09:14.865Z,21.67
2022-11-13T05:11:19.209Z,21.67
2022-11-13T05:13:23.537Z,21.65
2022-11-13T05:15:27.881Z,21.65
2022-11-13T05:17:32.226Z,21.65
2022-11-13T05:19:36.597Z,21.64
2022-11-13T05:21:40.933Z,21.64
2022-11-13T05:23:45.290Z,21.63
2022-11-13T05:25:49.690Z,21.63
2022-11-13T05:27:54.022Z,21.62
2022-11-13T05:29:58.365Z,21.61
2022-11-13T05:32:02.745Z,21.61
2022-11-13T05:34:07.134Z,21.6
2022-11-13T05:36:11.519Z,21.6
2022-11-13T05:38:15.866Z,21.59
2022-11-13T05:40:20.228Z,21.58
2022-11-13T05:42:24.589Z,21.57
2022-11-13T05:44:28.929Z,21.58
2022-11-13T05:46:33.284Z,21.58
2022-11-13T05:48:37.679Z,21.57
2022-11-13T05:50:42.016Z,21.57
2022-11-13T05:52:46.381Z,21.56
2022-11-13T05:54:50.744Z,21.55
2022-11-13T05:56:55.110Z,21.54
2022-11-13T05:58:59.478Z,21.54
2022-11-13T06:01:03.832Z,21.53
2022-11-13T06:03:08.182Z,21.54
2022-11-13T06:05:12.535Z,21.52
2022-11-13T06:07:16.953Z,21.5
2022-11-13T06:09:21.644Z,21.5
2022-11-13T06:11:26.068Z,21.51
2022-11-13T06:13:30.425Z,21.5
2022-11-13T06:15:34.786Z,21.51
2022-11-13T06:17:39.131Z,21.5
2022-11-13T06:19:43.489Z,21.48
2022-11-13T06:21:47.899Z,21.47
2022-11-13T06:23:52.238Z,21.46
2022-11-13T06:25:56.618Z,21.45
2022-11-13T06:28:00.974Z,21.44
2022-11-13T06:30:05.331Z,21.43
2022-11-13T06:32:09.684Z,21.43
2022-11-13T06:34:14.044Z,21.42
2022-11-13T06:36:18.405Z,21.42
2022-11-13T06:38:22.793Z,21.41
2022-11-13T06:40:27.200Z,21.41
2022-11-13T06:42:31.597Z,21.4
2022-11-13T06:44:36.115Z,21.4
2022-11-13T06:46:40.490Z,21.38
2022-11-13T06:48:44.846Z,21.38
2022-11-13T06:50:49.182Z,21.38
2022-11-13T06:52:53.583Z,21.37
2022-11-13T06:54:57.935Z,21.37
2022-11-13T06:57:02.308Z,21.36
2022-11-13T06:59:08.529Z,21.36
2022-11-13T07:01:13.111Z,21.36
2022-11-13T07:03:17.711Z,21.35
2022-11-13T07:05:22.060Z,21.34
2022-11-13T07:07:26.541Z,21.34
2022-11-13T07:09:31.191Z,21.35
2022-11-13T07:11:35.521Z,21.34
2022-11-13T07:13:43.035Z,21.33
2022-11-13T07:15:47.388Z,21.33
2022-11-13T07:17:51.820Z,21.32
2022-11-13T07:19:56.216Z,21.33
2022-11-13T07:22:00.711Z,21.32
2022-11-13T07:24:05.104Z,21.32
2022-11-13T07:26:09.504Z,21.32
2022-11-13T07:28:13.909Z,21.31
2022-11-13T07:30:18.405Z,21.32
2022-11-13T07:32:22.797Z,21.31
2022-11-13T07:34:27.213Z,21.29
2022-11-13T07:36:31.571Z,21.29
2022-11-13T07:38:36.006Z,21.27
2022-11-13T07:40:40.429Z,21.28
2022-11-13T07:42:44.793Z,21.27
2022-11-13T07:44:54.353Z,21.29
2022-11-13T07:46:59.308Z,21.3
2022-11-13T07:49:03.677Z,21.3
2022-11-13T07:51:08.075Z,21.3
2022-11-13T07:53:12.444Z,21.31
2022-11-13T07:55:16.843Z,21.31
2022-11-13T07:57:21.214Z,21.32
2022-11-13T07:59:25.641Z,21.31
2022-11-13T08:01:30.060Z,21.31
2022-11-13T08:03:34.693Z,21.34
2022-11-13T08:05:39.045Z,21.39
2022-11-13T08:07:46.072Z,21.45
2022-11-13T08:09:54.885Z,21.51
2022-11-13T08:11:59.245Z,21.57
2022-11-13T08:14:03.634Z,21.62
2022-11-13T08:16:08.016Z,21.66
2022-11-13T08:18:12.429Z,21.69
2022-11-13T08:20:16.829Z,21.73
2022-11-13T08:22:21.156Z,21.78
2022-11-13T08:24:25.517Z,21.85
2022-11-13T08:26:29.925Z,21.93
2022-11-13T08:28:34.346Z,21.99
2022-11-13T08:30:38.717Z,22.03
2022-11-13T08:32:43.120Z,22.08
2022-11-13T08:34:47.498Z,22.12
2022-11-13T08:36:51.884Z,22.15
2022-11-13T08:38:56.393Z,22.2
2022-11-13T08:41:04.513Z,22.22
2022-11-13T08:43:13.360Z,22.24
2022-11-13T08:45:17.830Z,22.27
2022-11-13T08:47:25.604Z,22.28
2022-11-13T08:49:33.224Z,22.3
2022-11-13T08:51:37.610Z,22.32
2022-11-13T08:53:42.013Z,22.35
2022-11-13T08:55:46.417Z,22.36
2022-11-13T08:57:50.814Z,22.37
2022-11-13T08:59:55.206Z,22.38
2022-11-13T09:01:59.635Z,22.38
2022-11-13T09:04:04.098Z,22.4
2022-11-13T09:06:08.699Z,22.42
2022-11-13T09:08:13.098Z,22.44
2022-11-13T09:10:17.484Z,22.46
2022-11-13T09:12:21.859Z,22.49
2022-11-13T09:14:26.272Z,22.52
2022-11-13T09:16:30.793Z,22.54
2022-11-13T09:18:35.207Z,22.57
2022-11-13T09:20:39.620Z,22.61
2022-11-13T09:22:44.033Z,22.64
2022-11-13T09:24:48.451Z,22.66
2022-11-13T09:26:52.835Z,22.67
2022-11-13T09:28:57.210Z,22.67
2022-11-13T09:31:01.659Z,22.7
2022-11-13T09:33:06.065Z,22.72
2022-11-13T09:35:10.481Z,22.73
2022-11-13T09:37:14.856Z,22.76
2022-11-13T09:39:19.274Z,22.78
2022-11-13T09:41:23.662Z,22.8
2022-11-13T09:43:28.037Z,22.81
2022-11-13T09:45:32.471Z,22.84
2022-11-13T09:47:36.864Z,22.87
2022-11-13T09:49:41.279Z,22.89
2022-11-13T09:51:45.676Z,22.89
2022-11-13T09:53:50.074Z,22.9
2022-11-13T09:55:54.463Z,22.91
2022-11-13T09:57:58.853Z,22.93
2022-11-13T10:00:03.246Z,22.94
2022-11-13T10:02:07.738Z,22.95
2022-11-13T10:04:14.418Z,22.96
2022-11-13T10:06:18.998Z,22.98
2022-11-13T10:08:23.383Z,22.99
2022-11-13T10:10:28.020Z,23.01
2022-11-13T10:12:32.373Z,23.03
2022-11-13T10:14:36.881Z,23.04
2022-11-13T10:16:41.285Z,23.05
2022-11-13T10:18:45.697Z,23.06
2022-11-13T10:20:50.110Z,23.07
2022-11-13T10:22:54.479Z,23.08
2022-11-13T10:24:58.835Z,23.09
2022-11-13T10:27:03.226Z,23.1
2022-11-13T10:29:07.650Z,23.12
2022-11-13T10:31:12.326Z,23.14
2022-11-13T10:33:16.691Z,23.17
2022-11-13T10:35:21.053Z,23.2
2022-11-13T10:37:25.411Z,23.23
2022-11-13T10:39:29.881Z,23.26
2022-11-13T10:41:34.300Z,23.28
2022-11-13T10:43:38.668Z,23.29
2022-11-13T10:45:43.032Z,23.31
2022-11-13T10:48:03.532Z,23.31
2022-11-13T10:50:09.004Z,23.34
2022-11-13T10:52:13.422Z,23.35
2022-11-13T10:54:17.793Z,23.36
2022-11-13T10:56:22.157Z,23.38
2022-11-13T10:58:26.978Z,23.39
2022-11-13T11:00:32.562Z,23.41
2022-11-13T11:02:37.003Z,23.42
2022-11-13T11:04:41.429Z,23.42
2022-11-13T11:09:25.221Z,23.44
2022-11-13T11:11:29.590Z,23.44
2022-11-13T11:13:34.008Z,23.45
2022-11-13T11:15:38.380Z,23.45
2022-11-13T11:17:42.781Z,23.46
2022-11-13T11:19:47.162Z,23.43
2022-11-13T11:21:51.517Z,23.4
2022-11-13T11:23:56.498Z,23.37
2022-11-13T11:26:01.021Z,23.34
2022-11-13T11:28:05.395Z,23.31
2022-11-13T11:30:09.802Z,23.28
2022-11-13T11:32:14.188Z,23.27
2022-11-13T11:34:18.553Z,23.26
2022-11-13T11:36:22.933Z,23.23
2022-11-13T11:38:27.588Z,23.22
2022-11-13T11:40:33.149Z,23.2
2022-11-13T11:42:37.428Z,23.2
2022-11-13T11:44:41.694Z,23.21
2022-11-13T11:46:46.906Z,23.23
2022-11-13T11:48:51.269Z,23.24
2022-11-13T11:50:55.591Z,23.24
2022-11-13T11:52:59.880Z,23.26
2022-11-13T11:55:04.215Z,23.26
2022-11-13T11:57:08.634Z,23.25
2022-11-13T11:59:13.455Z,23.23
2022-11-13T12:01:17.873Z,23.21
2022-11-13T12:03:22.266Z,23.18
2022-11-13T12:05:26.668Z,23.16
2022-11-13T12:07:31.448Z,23.15
2022-11-13T12:09:35.872Z,23.13
2022-11-13T12:11:40.292Z,23.11
2022-11-13T12:13:44.747Z,23.11
2022-11-13T12:15:49.153Z,23.09
2022-11-13T12:17:53.510Z,23.08
2022-11-13T12:19:57.896Z,23.08
2022-11-13T12:22:02.299Z,23.08
2022-11-13T12:24:06.818Z,23.07
2022-11-13T12:26:11.189Z,23.06
2022-11-13T12:28:15.621Z,23.07
2022-11-13T12:30:19.984Z,23.06
2022-11-13T12:32:24.353Z,23.06
2022-11-13T12:34:28.747Z,23.05
2022-11-13T12:36:33.129Z,23.05
2022-11-13T12:38:37.576Z,23.05
2022-11-13T12:40:44.594Z,23.04
2022-11-13T12:42:49.333Z,23.04
2022-11-13T12:44:53.715Z,23.04
2022-11-13T12:46:58.091Z,23.03
2022-11-13T12:49:02.548Z,23.03
2022-11-13T12:51:06.924Z,23.03
2022-11-13T12:53:11.320Z,23.03
2022-11-13T12:55:15.714Z,23.02
2022-11-13T12:57:20.140Z,23.03
2022-11-13T12:59:32.664Z,23.02
2022-11-13T13:01:37.187Z,23.01
2022-11-13T13:03:41.816Z,23.02
2022-11-13T13:05:46.207Z,23.01
2022-11-13T13:07:50.567Z,23.01
2022-11-13T13:09:54.982Z,23.02
2022-11-13T13:11:59.355Z,23.03
2022-11-13T13:14:03.706Z,23.04
2022-11-13T13:16:08.095Z,23.07
2022-11-13T13:18:12.498Z,23.08
2022-11-13T13:20:16.828Z,23.1
2022-11-13T13:22:21.182Z,23.11
2022-11-13T13:24:25.610Z,23.12
2022-11-13T13:26:30.044Z,23.11
2022-11-13T13:28:34.435Z,23.1
2022-11-13T13:30:38.829Z,23.1
2022-11-13T13:32:43.209Z,23.09
2022-11-13T13:34:47.593Z,23.09
2022-11-13T13:36:52.047Z,23.08
2022-11-13T13:38:56.494Z,23.08
2022-11-13T13:41:00.924Z,23.08
2022-11-13T13:43:05.276Z,23.08
2022-11-13T13:45:09.666Z,23.09
2022-11-13T13:47:14.078Z,23.09
2022-11-13T13:49:18.515Z,23.1
2022-11-13T13:51:22.897Z,23.1
2022-11-13T13:53:27.309Z,23.09
2022-11-13T13:55:31.738Z,23.09
2022-11-13T13:57:36.130Z,23.08
2022-11-13T13:59:40.612Z,23.09
2022-11-13T14:01:44.988Z,23.08
2022-11-13T14:03:49.497Z,23.08
2022-11-13T14:05:56.031Z,23.08
2022-11-13T14:08:07.490Z,23.07
2022-11-13T14:10:11.987Z,23.08
2022-11-13T14:12:16.336Z,23.08
2022-11-13T14:14:20.738Z,23.09
2022-11-13T14:16:25.133Z,23.1
2022-11-13T14:18:29.943Z,23.09
2022-11-13T14:20:34.408Z,23.08
2022-11-13T14:22:38.750Z,23.08
2022-11-13T14:24:43.173Z,23.08
2022-11-13T14:26:47.805Z,23.09
2022-11-13T14:28:53.492Z,23.1
2022-11-13T14:30:58.081Z,23.1
2022-11-13T14:33:02.455Z,23.11
2022-11-13T14:35:06.849Z,23.11
2022-11-13T14:37:11.187Z,23.13
2022-11-13T14:39:15.643Z,23.13
2022-11-13T14:41:20.142Z,23.15
2022-11-13T14:43:24.466Z,23.15
2022-11-13T14:45:29.388Z,23.15
2022-11-13T14:47:33.785Z,23.16
2022-11-13T14:49:38.147Z,23.16
2022-11-13T14:51:42.546Z,23.16
2022-11-13T14:53:46.911Z,23.16
2022-11-13T14:55:51.316Z,23.16
2022-11-13T14:57:55.705Z,23.16
2022-11-13T15:00:00.085Z,23.17
2022-11-13T15:02:04.469Z,23.17
2022-11-13T15:04:08.888Z,23.17
2022-11-13T15:06:13.313Z,23.17
2022-11-13T15:08:18.185Z,23.17
2022-11-13T15:10:22.553Z,23.17
2022-11-13T15:12:26.985Z,23.17
2022-11-13T15:14:31.360Z,23.16
2022-11-13T15:16:35.770Z,23.16
2022-11-13T15:18:40.207Z,23.16
2022-11-13T15:20:44.589Z,23.16
2022-11-13T15:22:49.000Z,23.16
2022-11-13T15:24:53.413Z,23.14
2022-11-13T15:26:57.824Z,23.15
2022-11-13T15:29:02.190Z,23.15
2022-11-13T15:31:06.599Z,23.16
2022-11-13T15:33:10.990Z,23.15
2022-11-13T15:35:15.832Z,23.16
2022-11-13T15:37:20.228Z,23.18
2022-11-13T15:39:24.614Z,23.18
2022-11-13T15:41:28.991Z,23.18
2022-11-13T15:43:33.421Z,23.21
2022-11-13T15:45:42.890Z,23.22
2022-11-13T15:47:48.449Z,23.22
2022-11-13T15:50:10.123Z,23.24
2022-11-13T15:52:19.490Z,23.26
2022-11-13T15:54:23.875Z,23.27
2022-11-13T15:56:28.275Z,23.32
2022-11-13T15:58:34.379Z,23.29
2022-11-13T16:00:38.987Z,23.23
2022-11-13T16:02:43.331Z,23.17
2022-11-13T16:04:56.310Z,23.12
2022-11-13T16:07:01.534Z,23.08
2022-11-13T16:09:06.190Z,23.03
2022-11-13T16:11:10.554Z,22.98
2022-11-13T16:13:14.949Z,22.96
2022-11-13T16:15:19.370Z,22.94
2022-11-13T16:17:23.765Z,22.91
2022-11-13T16:19:28.194Z,22.88
2022-11-13T16:21:32.593Z,22.87
2022-11-13T16:23:36.935Z,22.85
2022-11-13T16:25:41.340Z,22.87
2022-11-13T16:27:45.669Z,22.84
2022-11-13T16:29:50.046Z,22.82
2022-11-13T16:31:54.402Z,22.86
2022-11-13T16:33:58.778Z,22.92
2022-11-13T16:36:03.213Z,22.98
2022-11-13T16:38:15.199Z,23.05
2022-11-13T16:40:19.575Z,23.11
2022-11-13T16:42:27.160Z,23.2
2022-11-13T16:44:34.690Z,23.25
2022-11-13T16:46:39.097Z,23.33
2022-11-13T16:48:43.471Z,23.34
2022-11-13T16:50:48.146Z,23.35
2022-11-13T16:52:52.554Z,23.36
2022-11-13T16:54:59.121Z,23.38
2022-11-13T16:57:10.029Z,23.41
2022-11-13T16:59:14.526Z,23.46
2022-11-13T17:01:18.927Z,23.51
2022-11-13T17:03:23.680Z,23.56
2022-11-13T17:05:28.041Z,23.59
2022-11-13T17:07:32.504Z,23.63
2022-11-13T17:09:37.203Z,23.62
2022-11-13T17:11:41.669Z,23.61
2022-11-13T17:13:46.079Z,23.59
2022-11-13T17:15:50.444Z,23.58
2022-11-13T17:17:54.821Z,23.56
2022-11-13T17:19:59.569Z,23.54
2022-11-13T17:22:03.990Z,23.53
2022-11-13T17:24:08.405Z,23.53
2022-11-13T17:26:12.770Z,23.51
2022-11-13T17:28:17.145Z,23.5
2022-11-13T17:30:21.500Z,23.5
2022-11-13T17:32:25.910Z,23.49
2022-11-13T17:34:30.316Z,23.48
2022-11-13T17:36:34.725Z,23.48
2022-11-13T17:38:39.119Z,23.48
2022-11-13T17:40:43.544Z,23.47
2022-11-13T17:42:47.956Z,23.45
2022-11-13T17:44:52.450Z,23.45
2022-11-13T17:46:56.795Z,23.45
2022-11-13T17:49:01.286Z,23.44
2022-11-13T17:51:05.636Z,23.46
2022-11-13T17:53:10.008Z,23.49
2022-11-13T17:55:14.411Z,23.48
2022-11-13T17:57:22.796Z,23.5
2022-11-13T17:59:30.732Z,23.51
2022-11-13T18:01:35.191Z,23.5
2022-11-13T18:03:39.867Z,23.52
2022-11-13T18:05:44.237Z,23.53
2022-11-13T18:07:48.610Z,23.57
2022-11-13T18:09:53.092Z,23.62
2022-11-13T18:11:57.589Z,23.66
2022-11-13T18:14:02.006Z,23.7
2022-11-13T18:16:06.443Z,23.73
2022-11-13T18:18:10.853Z,23.74
2022-11-13T18:20:15.224Z,23.68
2022-11-13T18:22:19.585Z,23.6
2022-11-13T18:24:24.112Z,23.56
2022-11-13T18:26:28.752Z,23.45
2022-11-13T18:28:33.167Z,23.38
2022-11-13T18:30:37.551Z,23.26
2022-11-13T18:32:41.964Z,23.21
2022-11-13T18:34:46.349Z,23.19
2022-11-13T18:36:50.805Z,23.19
2022-11-13T18:38:55.257Z,23.17
2022-11-13T18:40:59.634Z,23.16
2022-11-13T18:43:04.141Z,23.16
2022-11-13T18:45:08.519Z,23.18
2022-11-13T18:47:12.984Z,23.18
2022-11-13T18:49:17.452Z,23.15
2022-11-13T18:51:21.806Z,23.14
2022-11-13T18:53:26.295Z,23.12
2022-11-13T18:55:31.699Z,23.13
2022-11-13T18:57:36.105Z,23.13
2022-11-13T18:59:40.509Z,23.12
2022-11-13T19:01:44.979Z,23.13
2022-11-13T19:06:27.393Z,23.14
2022-11-13T19:08:32.036Z,23.13
2022-11-13T19:10:43.347Z,23.12
2022-11-13T19:12:47.762Z,23.12
2022-11-13T19:14:52.161Z,23.11
2022-11-13T19:16:56.540Z,23.11
2022-11-13T19:19:00.961Z,23.11
2022-11-13T19:21:05.370Z,23.04
2022-11-13T19:23:09.765Z,23
2022-11-13T19:25:14.206Z,22.93
2022-11-13T19:27:18.599Z,22.89
2022-11-13T19:29:23.036Z,22.83
2022-11-13T19:31:27.499Z,22.79
2022-11-13T19:33:31.944Z,22.77
2022-11-13T19:35:36.358Z,22.76
2022-11-13T19:37:40.727Z,22.78
2022-11-13T19:39:45.111Z,22.75
2022-11-13T19:41:49.493Z,22.73
2022-11-13T19:43:53.912Z,22.72
2022-11-13T19:45:58.315Z,22.67
2022-11-13T19:48:02.774Z,22.62
2022-11-13T19:50:07.220Z,22.55
2022-11-13T19:52:11.587Z,22.52
2022-11-13T19:54:16.028Z,22.51
2022-11-13T19:56:20.391Z,22.48
2022-11-13T19:58:24.862Z,22.45
2022-11-13T20:00:29.981Z,22.42
2022-11-13T20:02:34.367Z,22.39
2022-11-13T20:04:38.796Z,22.36
2022-11-13T20:06:43.260Z,22.33
2022-11-13T20:08:47.863Z,22.32
2022-11-13T20:10:52.250Z,22.29
2022-11-13T20:12:56.663Z,22.26
2022-11-13T20:15:01.156Z,22.24
2022-11-13T20:17:05.584Z,22.25
2022-11-13T20:19:10.029Z,22.2
2022-11-13T20:21:14.546Z,22.2
2022-11-13T20:23:19.609Z,22.19
2022-11-13T20:25:24.019Z,22.19
2022-11-13T20:27:28.419Z,22.18
2022-11-13T20:29:32.883Z,22.16
2022-11-13T20:31:37.270Z,22.15
2022-11-13T20:33:41.661Z,22.14
2022-11-13T20:35:46.064Z,22.1
2022-11-13T20:37:50.434Z,22.13
2022-11-13T20:39:54.830Z,22.23
2022-11-13T20:41:59.264Z,22.35
2022-11-13T20:44:03.670Z,22.46
2022-11-13T20:46:08.070Z,22.58
2022-11-13T20:48:12.439Z,22.69
2022-11-13T20:50:16.818Z,22.76
2022-11-13T20:52:21.242Z,22.84
2022-11-13T20:54:25.711Z,22.92
2022-11-13T20:56:30.236Z,22.97
2022-11-13T20:58:34.673Z,23.03
2022-11-13T21:00:39.074Z,23.06
2022-11-13T21:02:43.461Z,23.09
2022-11-13T21:04:47.849Z,23.14
2022-11-13T21:06:52.281Z,23.19
2022-11-13T21:08:56.851Z,23.22
2022-11-13T21:11:01.270Z,23.25
2022-11-13T21:13:05.663Z,23.28
2022-11-13T21:15:10.082Z,23.32
2022-11-13T21:17:14.516Z,23.35
2022-11-13T21:19:18.914Z,23.36
2022-11-13T21:21:23.336Z,23.38
2022-11-13T21:23:27.712Z,23.39
2022-11-13T21:25:32.110Z,23.4
2022-11-13T21:27:36.472Z,23.41
2022-11-13T21:29:40.869Z,23.43
2022-11-13T21:31:45.281Z,23.45
2022-11-13T21:33:49.849Z,23.46
2022-11-13T21:35:54.242Z,23.46
2022-11-13T21:37:58.636Z,23.45
2022-11-13T21:40:03.389Z,23.44
2022-11-13T21:42:07.738Z,23.43
2022-11-13T21:44:12.135Z,23.42
2022-11-13T21:46:16.487Z,23.43
2022-11-13T21:48:20.866Z,23.42
2022-11-13T21:50:25.216Z,23.43
2022-11-13T21:52:29.597Z,23.45
2022-11-13T21:54:33.989Z,23.35
2022-11-13T21:56:38.416Z,23.16
2022-11-13T21:58:42.796Z,22.95
2022-11-13T22:00:47.147Z,22.74
2022-11-13T22:02:51.480Z,22.57
2022-11-13T22:04:55.904Z,22.45
2022-11-13T22:07:00.372Z,22.37
2022-11-13T22:09:04.928Z,22.31
2022-11-13T22:11:09.295Z,22.26
2022-11-13T22:13:13.639Z,22.22
2022-11-13T22:15:18.042Z,22.16
2022-11-13T22:17:22.520Z,22.09
2022-11-13T22:19:29.308Z,22.02
2022-11-13T22:21:39.511Z,21.97
2022-11-13T22:23:43.846Z,21.97
2022-11-13T22:25:48.242Z,21.94
2022-11-13T22:27:57.038Z,21.85
2022-11-13T22:30:01.505Z,21.77
2022-11-13T22:32:05.883Z,21.69
2022-11-13T22:34:10.253Z,21.62
2022-11-13T22:36:14.662Z,21.61
2022-11-13T22:38:19.044Z,21.6
2022-11-13T22:40:23.437Z,21.53
2022-11-13T22:42:27.834Z,21.46
2022-11-13T22:44:51.556Z,21.37
2022-11-13T22:47:00.268Z,21.3
2022-11-13T22:49:04.677Z,21.22
2022-11-13T22:51:09.089Z,21.16
2022-11-13T22:53:13.538Z,21.11
2022-11-13T22:55:17.898Z,21.06
2022-11-13T22:57:22.312Z,21.03
2022-11-13T22:59:26.668Z,20.99
2022-11-13T23:01:31.123Z,20.97
2022-11-13T23:03:35.558Z,20.93
2022-11-13T23:05:40.283Z,20.9
2022-11-13T23:07:44.679Z,20.87
2022-11-13T23:09:49.025Z,20.82
2022-11-13T23:11:53.396Z,20.79
2022-11-13T23:13:57.794Z,20.76
2022-11-13T23:16:02.217Z,20.72
2022-11-13T23:18:09.755Z,20.71
2022-11-13T23:20:14.269Z,20.67
2022-11-13T23:22:18.621Z,20.66
2022-11-13T23:24:23.018Z,20.66
2022-11-13T23:26:27.402Z,20.65
2022-11-13T23:28:32.145Z,20.63
2022-11-13T23:30:36.671Z,20.61
2022-11-13T23:32:41.058Z,20.59
2022-11-13T23:35:00.703Z,20.59
2022-11-13T23:37:05.213Z,20.6
2022-11-13T23:39:09.597Z,20.58
2022-11-13T23:41:13.986Z,20.57
2022-11-13T23:43:18.343Z,20.56
2022-11-13T23:45:22.772Z,20.56
2022-11-13T23:47:27.157Z,20.55
2022-11-13T23:49:31.509Z,20.53
2022-11-13T23:51:35.905Z,20.54
2022-11-13T23:53:40.262Z,20.53
2022-11-13T23:55:44.679Z,20.52
2022-11-13T23:57:49.062Z,20.51
2022-11-13T23:59:53.421Z,20.51
